Time,TemperatureF,DewpointF,PressureIn,WindDirection,WindDirectionDegrees,WindSpeedMPH,WindSpeedGustMPH,Humidity,HourlyPrecipIn,Conditions,Clouds,dailyrainin,SoftwareType,DateUTC
2013-12-17 00:05:00,11.1,1.0,30.13,North,0,1.0,0.0,64,0.00,,,0.00,vanprod,2013-12-17 05:05:00,
2013-12-17 00:15:00,10.5,1.0,30.14,SE,139,0.0,0.0,65,0.00,,,0.00,vanprod,2013-12-17 05:15:00,
2013-12-17 00:25:00,9.9,1.0,30.14,SE,139,0.0,0.0,65,0.00,,,0.00,vanprod,2013-12-17 05:25:00,
2013-12-17 00:35:00,9.2,0.0,30.14,SE,139,0.0,0.0,66,0.00,,,0.00,vanprod,2013-12-17 05:35:00,
2013-12-17 00:45:00,8.3,0.0,30.15,SE,139,0.0,0.0,67,0.00,,,0.00,vanprod,2013-12-17 05:45:00,
2013-12-17 00:55:00,7.7,-1.0,30.15,SE,139,0.0,0.0,68,0.00,,,0.00,vanprod,2013-12-17 05:55:00,
2013-12-17 01:05:00,7.4,-1.0,30.15,SE,139,0.0,0.0,69,0.00,,,0.00,vanprod,2013-12-17 06:05:00,
2013-12-17 01:15:00,6.9,-1.0,30.15,SE,139,0.0,0.0,70,0.00,,,0.00,vanprod,2013-12-17 06:15:00,
2013-12-17 01:25:00,6.3,-1.0,30.15,SE,139,0.0,0.0,71,0.00,,,0.00,vanprod,2013-12-17 06:25:00,
2013-12-17 01:35:00,5.6,-1.0,30.16,SE,139,0.0,0.0,72,0.00,,,0.00,vanprod,2013-12-17 06:35:00,
2013-12-17 01:45:00,5.0,-2.0,30.16,SE,139,0.0,0.0,73,0.00,,,0.00,vanprod,2013-12-17 06:45:00,
2013-12-17 01:55:00,4.7,-2.0,30.16,SE,139,0.0,0.0,73,0.00,,,0.00,vanprod,2013-12-17 06:55:00,
2013-12-17 02:05:00,4.3,-2.0,30.16,SE,139,1.0,2.0,74,0.00,,,0.00,vanprod,2013-12-17 07:05:00,
2013-12-17 02:15:00,4.1,-2.0,30.17,SE,139,0.0,0.0,74,0.00,,,0.00,vanprod,2013-12-17 07:15:00,
2013-12-17 02:25:00,3.7,-3.0,30.17,SE,139,0.0,0.0,74,0.00,,,0.00,vanprod,2013-12-17 07:25:00,
2013-12-17 02:35:00,3.4,-3.0,30.18,SE,139,0.0,2.0,74,0.00,,,0.00,vanprod,2013-12-17 07:35:00,
2013-12-17 02:45:00,3.2,-3.0,30.18,SE,139,0.0,0.0,75,0.00,,,0.00,vanprod,2013-12-17 07:45:00,
2013-12-17 02:55:00,2.8,-3.0,30.18,SE,139,0.0,0.0,75,0.00,,,0.00,vanprod,2013-12-17 07:55:00,
2013-12-17 03:05:00,2.4,-4.0,30.19,SE,139,0.0,1.0,75,0.00,,,0.00,vanprod,2013-12-17 08:05:00,
2013-12-17 03:15:00,2.0,-4.0,30.19,SE,139,0.0,0.0,75,0.00,,,0.00,vanprod,2013-12-17 08:15:00,
2013-12-17 03:25:00,2.0,-4.0,30.19,SE,139,0.0,0.0,76,0.00,,,0.00,vanprod,2013-12-17 08:25:00,
2013-12-17 03:35:00,1.8,-4.0,30.19,SE,139,0.0,0.0,76,0.00,,,0.00,vanprod,2013-12-17 08:35:00,
2013-12-17 03:45:00,1.7,-4.0,30.19,SE,139,0.0,0.0,76,0.00,,,0.00,vanprod,2013-12-17 08:45:00,
2013-12-17 03:55:00,1.7,-4.0,30.19,SE,139,0.0,0.0,76,0.00,,,0.00,vanprod,2013-12-17 08:55:00,
2013-12-17 04:05:00,1.7,-4.0,30.20,SE,139,0.0,0.0,75,0.00,,,0.00,vanprod,2013-12-17 09:05:00,
2013-12-17 04:15:00,1.5,-5.0,30.20,SE,139,0.0,0.0,75,0.00,,,0.00,vanprod,2013-12-17 09:15:00,
2013-12-17 04:25:00,1.3,-5.0,30.20,SE,139,0.0,0.0,74,0.00,,,0.00,vanprod,2013-12-17 09:25:00,
2013-12-17 04:35:00,1.1,-5.0,30.20,SE,139,0.0,1.0,74,0.00,,,0.00,vanprod,2013-12-17 09:35:00,
2013-12-17 04:45:00,1.1,-5.0,30.20,SE,139,0.0,0.0,74,0.00,,,0.00,vanprod,2013-12-17 09:45:00,
2013-12-17 04:55:00,0.9,-5.0,30.20,SE,139,0.0,0.0,74,0.00,,,0.00,vanprod,2013-12-17 09:55:00,
2013-12-17 05:05:00,0.5,-6.0,30.20,SE,139,0.0,0.0,74,0.00,,,0.00,vanprod,2013-12-17 10:05:00,
2013-12-17 05:15:00,0.1,-6.0,30.20,SE,139,0.0,0.0,74,0.00,,,0.00,vanprod,2013-12-17 10:15:00,
2013-12-17 05:25:00,-0.1,-6.0,30.20,SE,139,0.0,0.0,75,0.00,,,0.00,vanprod,2013-12-17 10:25:00,
2013-12-17 05:35:00,-0.3,-6.0,30.21,SE,139,0.0,0.0,75,0.00,,,0.00,vanprod,2013-12-17 10:35:00,
2013-12-17 05:45:00,-0.5,-6.0,30.21,SE,139,0.0,0.0,75,0.00,,,0.00,vanprod,2013-12-17 10:45:00,
2013-12-17 05:55:00,-0.7,-7.0,30.21,SE,139,0.0,0.0,75,0.00,,,0.00,vanprod,2013-12-17 10:55:00,
2013-12-17 06:05:00,-0.7,-6.0,30.21,SE,139,0.0,0.0,76,0.00,,,0.00,vanprod,2013-12-17 11:05:00,
2013-12-17 06:15:00,-0.7,-6.0,30.22,SE,139,0.0,0.0,76,0.00,,,0.00,vanprod,2013-12-17 11:15:00,
2013-12-17 06:25:00,-0.9,-7.0,30.22,SE,139,0.0,0.0,76,0.00,,,0.00,vanprod,2013-12-17 11:25:00,
2013-12-17 06:35:00,-1.3,-7.0,30.22,SE,139,0.0,0.0,75,0.00,,,0.00,vanprod,2013-12-17 11:35:00,
2013-12-17 06:45:00,-1.7,-7.0,30.21,SE,139,0.0,0.0,76,0.00,,,0.00,vanprod,2013-12-17 11:45:00,
2013-12-17 06:55:00,-1.7,-7.0,30.21,SE,139,0.0,0.0,77,0.00,,,0.00,vanprod,2013-12-17 11:55:00,
2013-12-17 07:05:00,-1.9,-7.0,30.21,SE,139,0.0,0.0,77,0.00,,,0.00,vanprod,2013-12-17 12:05:00,
2013-12-17 07:15:00,-2.1,-8.0,30.21,SE,139,0.0,0.0,77,0.00,,,0.00,vanprod,2013-12-17 12:15:00,
2013-12-17 07:25:00,-2.3,-8.0,30.21,SE,139,0.0,0.0,77,0.00,,,0.00,vanprod,2013-12-17 12:25:00,
2013-12-17 07:35:00,-2.5,-8.0,30.21,SE,139,0.0,0.0,77,0.00,,,0.00,vanprod,2013-12-17 12:35:00,
2013-12-17 07:45:00,-2.7,-8.0,30.21,SE,139,0.0,0.0,77,0.00,,,0.00,vanprod,2013-12-17 12:45:00,
2013-12-17 07:55:00,-3.0,-8.0,30.21,SE,139,0.0,0.0,77,0.00,,,0.00,vanprod,2013-12-17 12:55:00,
2013-12-17 08:05:00,-3.0,-8.0,30.22,SE,139,0.0,0.0,78,0.00,,,0.00,vanprod,2013-12-17 13:05:00,
2013-12-17 08:15:00,-2.7,-8.0,30.22,SE,139,0.0,0.0,78,0.00,,,0.00,vanprod,2013-12-17 13:15:00,
2013-12-17 08:25:00,-2.3,-7.0,30.22,SE,139,0.0,1.0,79,0.00,,,0.00,vanprod,2013-12-17 13:25:00,
2013-12-17 08:35:00,-1.5,-6.0,30.20,SE,139,1.0,0.0,80,0.00,,,0.00,vanprod,2013-12-17 13:35:00,
2013-12-17 08:45:00,-0.5,-5.0,30.20,SE,139,0.0,2.0,79,0.00,,,0.00,vanprod,2013-12-17 13:45:00,
2013-12-17 08:55:00,0.7,-4.0,30.20,SE,139,0.0,1.0,79,0.00,,,0.00,vanprod,2013-12-17 13:55:00,
2013-12-17 09:05:00,2.4,-4.0,30.21,SE,139,1.0,0.0,74,0.00,,,0.00,vanprod,2013-12-17 14:05:00,
2013-12-17 09:15:00,3.9,-3.0,30.21,SE,139,1.0,0.0,72,0.00,,,0.00,vanprod,2013-12-17 14:15:00,
2013-12-17 09:25:00,5.2,-3.0,30.21,SE,139,1.0,0.0,68,0.00,,,0.00,vanprod,2013-12-17 14:25:00,
2013-12-17 09:35:00,6.3,-3.0,30.20,SE,139,1.0,0.0,65,0.00,,,0.00,vanprod,2013-12-17 14:35:00,
2013-12-17 09:45:00,7.2,-2.0,30.20,SE,139,1.0,0.0,65,0.00,,,0.00,vanprod,2013-12-17 14:45:00,
2013-12-17 09:55:00,8.6,-1.0,30.20,SE,139,0.0,2.0,63,0.00,,,0.00,vanprod,2013-12-17 14:55:00,
2013-12-17 10:05:00,9.7,-1.0,30.20,SE,139,1.0,2.0,62,0.00,,,0.00,vanprod,2013-12-17 15:05:00,
2013-12-17 10:15:00,10.0,0.0,30.21,SE,139,0.0,0.0,63,0.00,,,0.00,vanprod,2013-12-17 15:15:00,
2013-12-17 10:25:00,10.5,0.0,30.21,SE,139,0.0,0.0,61,0.00,,,0.00,vanprod,2013-12-17 15:25:00,
2013-12-17 10:35:00,10.7,0.0,30.21,SE,139,0.0,0.0,62,0.00,,,0.00,vanprod,2013-12-17 15:35:00,
2013-12-17 10:45:00,10.9,0.0,30.21,SE,139,0.0,0.0,62,0.00,,,0.00,vanprod,2013-12-17 15:45:00,
2013-12-17 10:55:00,11.4,1.0,30.21,SE,139,1.0,2.0,62,0.00,,,0.00,vanprod,2013-12-17 15:55:00,
2013-12-17 11:05:00,11.9,2.0,30.19,SE,139,1.0,0.0,63,0.00,,,0.00,vanprod,2013-12-17 16:05:00,
2013-12-17 11:15:00,12.3,2.0,30.18,SE,139,1.0,0.0,62,0.00,,,0.00,vanprod,2013-12-17 16:15:00,
2013-12-17 11:25:00,12.8,2.0,30.18,SE,139,0.0,0.0,62,0.00,,,0.00,vanprod,2013-12-17 16:25:00,
2013-12-17 11:35:00,13.6,3.0,30.17,SE,138,2.0,2.0,61,0.00,,,0.00,vanprod,2013-12-17 16:35:00,
2013-12-17 11:45:00,14.0,3.0,30.18,SE,138,1.0,1.0,60,0.00,,,0.00,vanprod,2013-12-17 16:45:00,
2013-12-17 11:55:00,14.0,4.0,30.18,ESE,105,1.0,0.0,63,0.00,,,0.00,vanprod,2013-12-17 16:55:00,
2013-12-17 12:05:00,14.3,4.0,30.16,ESE,105,2.0,5.0,64,0.00,,,0.00,vanprod,2013-12-17 17:05:00,
2013-12-17 12:15:00,14.8,5.0,30.16,ESE,105,1.0,0.0,64,0.00,,,0.00,vanprod,2013-12-17 17:15:00,
2013-12-17 12:25:00,15.2,5.0,30.16,ESE,105,1.0,0.0,62,0.00,,,0.00,vanprod,2013-12-17 17:25:00,
2013-12-17 12:35:00,15.6,5.0,30.15,ESE,105,1.0,3.0,62,0.00,,,0.00,vanprod,2013-12-17 17:35:00,
2013-12-17 12:45:00,15.4,5.0,30.14,ESE,105,2.0,2.0,62,0.00,,,0.00,vanprod,2013-12-17 17:45:00,
2013-12-17 12:55:00,15.6,5.0,30.14,ESE,105,1.0,0.0,63,0.00,,,0.00,vanprod,2013-12-17 17:55:00,
2013-12-17 13:05:00,15.9,6.0,30.13,ENE,77,1.0,2.0,63,0.00,,,0.00,vanprod,2013-12-17 18:05:00,
2013-12-17 13:15:00,16.4,7.0,30.13,ENE,77,1.0,0.0,65,0.00,,,0.00,vanprod,2013-12-17 18:15:00,
2013-12-17 13:25:00,16.4,7.0,30.13,ENE,74,1.0,3.0,67,0.00,,,0.00,vanprod,2013-12-17 18:25:00,
2013-12-17 13:35:00,16.5,8.0,30.13,ENE,74,1.0,5.0,69,0.00,,,0.00,vanprod,2013-12-17 18:35:00,
2013-12-17 13:45:00,16.5,9.0,30.11,ENE,74,1.0,0.0,71,0.00,,,0.00,vanprod,2013-12-17 18:45:00,
2013-12-17 13:55:00,16.5,9.0,30.11,ENE,74,2.0,0.0,73,0.00,,,0.00,vanprod,2013-12-17 18:55:00,
2013-12-17 14:05:00,16.5,10.0,30.11,ENE,74,1.0,0.0,75,0.00,,,0.00,vanprod,2013-12-17 19:05:00,
2013-12-17 14:15:00,16.5,10.0,30.10,ENE,74,2.0,5.0,75,0.00,,,0.00,vanprod,2013-12-17 19:15:00,
2013-12-17 14:25:00,16.4,10.0,30.10,ENE,74,2.0,2.0,75,0.00,,,0.00,vanprod,2013-12-17 19:25:00,
2013-12-17 14:35:00,16.1,10.0,30.09,ENE,74,3.0,3.0,76,0.00,,,0.00,vanprod,2013-12-17 19:35:00,
2013-12-17 14:45:00,15.6,10.0,30.09,ENE,74,2.0,0.0,77,0.00,,,0.00,vanprod,2013-12-17 19:45:00,
2013-12-17 14:55:00,15.4,10.0,30.07,ENE,58,1.0,3.0,78,0.00,,,0.00,vanprod,2013-12-17 19:55:00,
2013-12-17 15:05:00,15.4,10.0,30.07,ENE,58,2.0,2.0,79,0.00,,,0.00,vanprod,2013-12-17 20:05:00,
2013-12-17 15:15:00,15.4,10.0,30.08,ENE,58,0.0,0.0,80,0.00,,,0.00,vanprod,2013-12-17 20:15:00,
2013-12-17 15:25:00,15.2,10.0,30.08,ENE,57,2.0,5.0,79,0.00,,,0.00,vanprod,2013-12-17 20:25:00,
2013-12-17 15:35:00,15.1,10.0,30.07,ENE,57,2.0,2.0,79,0.00,,,0.00,vanprod,2013-12-17 20:35:00,
2013-12-17 15:45:00,15.1,10.0,30.07,ENE,57,1.0,6.0,80,0.00,,,0.00,vanprod,2013-12-17 20:45:00,
2013-12-17 15:55:00,14.8,10.0,30.06,ENE,57,2.0,2.0,80,0.00,,,0.00,vanprod,2013-12-17 20:55:00,
2013-12-17 16:05:00,14.6,10.0,30.05,ENE,57,3.0,3.0,81,0.00,,,0.00,vanprod,2013-12-17 21:05:00,
2013-12-17 16:15:00,14.3,10.0,30.05,ENE,57,2.0,2.0,82,0.00,,,0.00,vanprod,2013-12-17 21:15:00,
2013-12-17 16:25:00,14.3,10.0,30.04,NE,53,1.0,1.0,83,0.00,,,0.00,vanprod,2013-12-17 21:25:00,
2013-12-17 16:35:00,14.1,10.0,30.04,NE,53,1.0,1.0,84,0.00,,,0.00,vanprod,2013-12-17 21:35:00,
2013-12-17 16:45:00,14.0,10.0,30.04,NE,53,2.0,4.0,84,0.00,,,0.00,vanprod,2013-12-17 21:45:00,
2013-12-17 16:55:00,13.8,10.0,30.04,NE,53,2.0,0.0,85,0.00,,,0.00,vanprod,2013-12-17 21:55:00,
2013-12-17 17:05:00,13.6,10.0,30.03,NE,49,2.0,2.0,85,0.00,,,0.00,vanprod,2013-12-17 22:05:00,
2013-12-17 17:15:00,13.5,10.0,30.03,NE,49,2.0,2.0,86,0.00,,,0.00,vanprod,2013-12-17 22:15:00,
2013-12-17 17:25:00,13.3,10.0,30.04,NE,49,2.0,0.0,86,0.00,,,0.00,vanprod,2013-12-17 22:25:00,
2013-12-17 17:35:00,13.3,10.0,30.03,NE,54,2.0,5.0,86,0.00,,,0.00,vanprod,2013-12-17 22:35:00,
2013-12-17 17:45:00,13.3,10.0,30.03,NE,54,2.0,3.0,87,0.00,,,0.00,vanprod,2013-12-17 22:45:00,
2013-12-17 17:55:00,13.3,10.0,30.03,NE,54,3.0,3.0,87,0.00,,,0.00,vanprod,2013-12-17 22:55:00,
2013-12-17 18:05:00,13.3,10.0,30.02,North,5,2.0,2.0,87,0.00,,,0.00,vanprod,2013-12-17 23:05:00,
2013-12-17 18:15:00,13.3,10.0,30.02,North,5,2.0,5.0,87,0.00,,,0.00,vanprod,2013-12-17 23:15:00,
2013-12-17 18:25:00,13.3,10.0,30.02,ENE,64,2.0,2.0,87,0.00,,,0.00,vanprod,2013-12-17 23:25:00,
2013-12-17 18:35:00,13.1,10.0,30.03,ENE,64,3.0,4.0,86,0.00,,,0.00,vanprod,2013-12-17 23:35:00,
2013-12-17 18:45:00,12.9,9.0,30.01,ENE,64,3.0,3.0,86,0.00,,,0.00,vanprod,2013-12-17 23:45:00,
2013-12-17 18:55:00,12.8,9.0,30.01,ENE,64,3.0,5.0,86,0.00,,,0.00,vanprod,2013-12-17 23:55:00,
2013-12-17 19:05:00,12.8,10.0,30.01,North,355,3.0,0.0,87,0.00,,,0.00,vanprod,2013-12-18 00:05:00,
2013-12-17 19:15:00,12.9,10.0,30.01,North,355,2.0,4.0,87,0.00,,,0.00,vanprod,2013-12-18 00:15:00,
2013-12-17 19:25:00,12.9,10.0,30.02,North,355,2.0,2.0,87,0.00,,,0.00,vanprod,2013-12-18 00:25:00,
2013-12-17 19:35:00,13.1,10.0,30.01,ENE,60,2.0,3.0,87,0.00,,,0.00,vanprod,2013-12-18 00:35:00,
2013-12-17 19:45:00,13.1,10.0,30.01,ENE,60,2.0,0.0,87,0.00,,,0.00,vanprod,2013-12-18 00:45:00,
2013-12-17 19:55:00,13.3,10.0,30.00,NW,304,2.0,2.0,88,0.00,,,0.00,vanprod,2013-12-18 00:55:00,
2013-12-17 20:05:00,13.5,11.0,30.00,NW,304,3.0,7.0,88,0.00,,,0.00,vanprod,2013-12-18 01:05:00,
2013-12-17 20:15:00,13.5,11.0,30.00,NW,304,2.0,5.0,88,0.00,,,0.00,vanprod,2013-12-18 01:15:00,
2013-12-17 20:25:00,13.6,11.0,29.99,NE,52,3.0,3.0,88,0.00,,,0.00,vanprod,2013-12-18 01:25:00,
2013-12-17 20:35:00,13.6,11.0,29.99,NE,52,2.0,2.0,88,0.00,,,0.00,vanprod,2013-12-18 01:35:00,
2013-12-17 20:45:00,13.8,11.0,29.99,NE,52,2.0,7.0,88,0.00,,,0.00,vanprod,2013-12-18 01:45:00,
2013-12-17 20:55:00,13.8,11.0,29.99,NNE,33,3.0,7.0,87,0.00,,,0.00,vanprod,2013-12-18 01:55:00,
2013-12-17 21:05:00,13.8,11.0,29.97,NNE,33,4.0,4.0,87,0.00,,,0.00,vanprod,2013-12-18 02:05:00,
2013-12-17 21:15:00,14.0,11.0,29.97,NNE,33,3.0,0.0,87,0.00,,,0.00,vanprod,2013-12-18 02:15:00,
2013-12-17 21:25:00,14.0,11.0,29.96,ENE,71,3.0,3.0,88,0.00,,,0.00,vanprod,2013-12-18 02:25:00,
2013-12-17 21:35:00,14.1,11.0,29.96,ENE,71,2.0,2.0,88,0.00,,,0.00,vanprod,2013-12-18 02:35:00,
2013-12-17 21:45:00,14.3,11.0,29.96,ENE,71,3.0,0.0,88,0.00,,,0.00,vanprod,2013-12-18 02:45:00,
2013-12-17 21:55:00,14.4,11.0,29.95,NNE,26,2.0,2.0,88,0.00,,,0.00,vanprod,2013-12-18 02:55:00,
2013-12-17 22:05:00,14.6,12.0,29.94,NNE,26,3.0,3.0,88,0.00,,,0.00,vanprod,2013-12-18 03:05:00,
2013-12-17 22:15:00,14.9,12.0,29.94,NNE,26,3.0,3.0,88,0.00,,,0.00,vanprod,2013-12-18 03:15:00,
2013-12-17 22:25:00,14.9,12.0,29.94,NE,44,3.0,0.0,88,0.00,,,0.00,vanprod,2013-12-18 03:25:00,
2013-12-17 22:35:00,14.9,12.0,29.95,NE,44,3.0,3.0,87,0.00,,,0.00,vanprod,2013-12-18 03:35:00,
2013-12-17 22:45:00,14.6,12.0,29.95,NE,44,2.0,0.0,88,0.00,,,0.00,vanprod,2013-12-18 03:45:00,
2013-12-17 22:55:00,14.4,11.0,29.95,NE,44,3.0,3.0,87,0.00,,,0.00,vanprod,2013-12-18 03:55:00,
2013-12-17 23:05:00,14.0,11.0,29.95,ENE,62,3.0,3.0,87,0.00,,,0.00,vanprod,2013-12-18 04:05:00,
2013-12-17 23:15:00,13.6,10.0,29.93,ENE,62,4.0,4.0,86,0.00,,,0.00,vanprod,2013-12-18 04:15:00,
2013-12-17 23:25:00,13.5,10.0,29.93,ENE,62,3.0,6.0,86,0.00,,,0.00,vanprod,2013-12-18 04:25:00,
2013-12-17 23:35:00,13.5,10.0,29.94,NE,48,3.0,6.0,86,0.00,,,0.00,vanprod,2013-12-18 04:35:00,
2013-12-17 23:45:00,13.5,10.0,29.94,NE,48,2.0,2.0,86,0.00,,,0.00,vanprod,2013-12-18 04:45:00,
2013-12-17 23:55:00,13.5,10.0,29.91,NE,48,3.0,3.0,86,0.00,,,0.00,vanprod,2013-12-18 04:55:00,